sensor_id;sensor_type;location;lat;lon;timestamp;P1;durP1;ratioP1;P2;durP2;ratioP2
49834;SDS011;35729;52.090;13.162;2023-08-20T00:02:13;12.82;;;11.57;;
49834;SDS011;35729;52.090;13.162;2023-08-20T00:04:46;13.00;;;11.63;;
49834;SDS011;35729;52.090;13.162;2023-08-20T00:07:17;12.68;;;11.00;;
49834;SDS011;35729;52.090;13.162;2023-08-20T00:09:46;13.52;;;12.27;;
49834;SDS011;35729;52.090;13.162;2023-08-20T00:12:14;13.73;;;12.07;;
49834;SDS011;35729;52.090;13.162;2023-08-20T00:17:36;12.93;;;11.52;;
49834;SDS011;35729;52.090;13.162;2023-08-20T00:20:07;13.88;;;12.07;;
49834;SDS011;35729;52.090;13.162;2023-08-20T00:25:10;15.35;;;13.82;;
49834;SDS011;35729;52.090;13.162;2023-08-20T00:27:40;14.82;;;13.30;;
49834;SDS011;35729;52.090;13.162;2023-08-20T00:30:10;14.82;;;13.38;;
49834;SDS011;35729;52.090;13.162;2023-08-20T00:32:42;15.30;;;13.68;;
49834;SDS011;35729;52.090;13.162;2023-08-20T00:35:10;17.08;;;12.85;;
49834;SDS011;35729;52.090;13.162;2023-08-20T00:37:39;15.68;;;14.07;;
49834;SDS011;35729;52.090;13.162;2023-08-20T00:40:10;14.25;;;12.75;;
49834;SDS011;35729;52.090;13.162;2023-08-20T00:42:39;15.35;;;13.75;;
49834;SDS011;35729;52.090;13.162;2023-08-20T00:45:08;22.77;;;19.95;;
49834;SDS011;35729;52.090;13.162;2023-08-20T00:47:37;15.07;;;13.55;;
49834;SDS011;35729;52.090;13.162;2023-08-20T00:50:09;15.02;;;13.23;;
49834;SDS011;35729;52.090;13.162;2023-08-20T00:52:39;15.77;;;14.27;;
49834;SDS011;35729;52.090;13.162;2023-08-20T00:55:08;15.82;;;14.10;;
49834;SDS011;35729;52.090;13.162;2023-08-20T00:57:38;15.07;;;13.55;;
49834;SDS011;35729;52.090;13.162;2023-08-20T01:00:08;14.57;;;13.25;;
49834;SDS011;35729;52.090;13.162;2023-08-20T01:02:38;18.33;;;13.60;;
49834;SDS011;35729;52.090;13.162;2023-08-20T01:05:10;15.48;;;13.93;;
49834;SDS011;35729;52.090;13.162;2023-08-20T01:07:43;13.80;;;12.57;;
49834;SDS011;35729;52.090;13.162;2023-08-20T01:10:33;15.65;;;13.65;;
49834;SDS011;35729;52.090;13.162;2023-08-20T01:13:08;14.93;;;13.35;;
49834;SDS011;35729;52.090;13.162;2023-08-20T01:15:38;15.48;;;13.25;;
49834;SDS011;35729;52.090;13.162;2023-08-20T01:18:06;14.13;;;12.60;;
49834;SDS011;35729;52.090;13.162;2023-08-20T01:20:38;13.55;;;12.10;;
49834;SDS011;35729;52.090;13.162;2023-08-20T01:26:22;14.98;;;13.35;;
49834;SDS011;35729;52.090;13.162;2023-08-20T01:29:05;14.02;;;12.65;;
49834;SDS011;35729;52.090;13.162;2023-08-20T01:31:36;14.70;;;13.18;;
49834;SDS011;35729;52.090;13.162;2023-08-20T01:34:05;14.52;;;13.02;;
49834;SDS011;35729;52.090;13.162;2023-08-20T01:36:34;15.02;;;11.77;;
49834;SDS011;35729;52.090;13.162;2023-08-20T01:39:02;13.80;;;12.38;;
49834;SDS011;35729;52.090;13.162;2023-08-20T01:41:33;15.98;;;13.07;;
49834;SDS011;35729;52.090;13.162;2023-08-20T01:44:01;13.13;;;11.88;;
49834;SDS011;35729;52.090;13.162;2023-08-20T01:46:33;13.50;;;12.05;;
49834;SDS011;35729;52.090;13.162;2023-08-20T01:49:01;15.25;;;12.55;;
49834;SDS011;35729;52.090;13.162;2023-08-20T01:51:30;18.10;;;12.35;;
49834;SDS011;35729;52.090;13.162;2023-08-20T01:53:58;12.57;;;11.45;;
49834;SDS011;35729;52.090;13.162;2023-08-20T01:56:27;14.43;;;12.43;;
49834;SDS011;35729;52.090;13.162;2023-08-20T01:58:55;14.18;;;12.15;;
49834;SDS011;35729;52.090;13.162;2023-08-20T02:01:24;16.92;;;12.05;;
49834;SDS011;35729;52.090;13.162;2023-08-20T02:03:55;12.82;;;11.52;;
49834;SDS011;35729;52.090;13.162;2023-08-20T02:06:23;13.57;;;10.93;;
49834;SDS011;35729;52.090;13.162;2023-08-20T02:08:52;15.98;;;11.65;;
49834;SDS011;35729;52.090;13.162;2023-08-20T02:11:21;11.88;;;10.43;;
49834;SDS011;35729;52.090;13.162;2023-08-20T02:13:50;12.32;;;10.45;;
49834;SDS011;35729;52.090;13.162;2023-08-20T02:16:18;13.13;;;10.65;;
49834;SDS011;35729;52.090;13.162;2023-08-20T02:18:47;13.40;;;10.75;;
49834;SDS011;35729;52.090;13.162;2023-08-20T02:21:18;11.27;;;10.18;;
49834;SDS011;35729;52.090;13.162;2023-08-20T02:23:46;12.20;;;10.57;;
49834;SDS011;35729;52.090;13.162;2023-08-20T02:26:15;12.18;;;10.90;;
49834;SDS011;35729;52.090;13.162;2023-08-20T02:28:43;11.75;;;10.55;;
49834;SDS011;35729;52.090;13.162;2023-08-20T02:31:12;14.25;;;10.60;;
49834;SDS011;35729;52.090;13.162;2023-08-20T02:33:40;10.57;;;9.48;;
49834;SDS011;35729;52.090;13.162;2023-08-20T02:36:09;14.98;;;10.57;;
49834;SDS011;35729;52.090;13.162;2023-08-20T02:38:40;11.45;;;10.32;;
49834;SDS011;35729;52.090;13.162;2023-08-20T02:41:09;13.35;;;10.40;;
49834;SDS011;35729;52.090;13.162;2023-08-20T02:43:37;12.25;;;10.52;;
49834;SDS011;35729;52.090;13.162;2023-08-20T02:46:06;11.43;;;10.43;;
49834;SDS011;35729;52.090;13.162;2023-08-20T02:48:34;11.75;;;10.18;;
49834;SDS011;35729;52.090;13.162;2023-08-20T02:51:03;13.95;;;10.43;;
49834;SDS011;35729;52.090;13.162;2023-08-20T02:53:31;11.55;;;10.25;;
49834;SDS011;35729;52.090;13.162;2023-08-20T02:56:03;12.38;;;10.95;;
49834;SDS011;35729;52.090;13.162;2023-08-20T02:58:31;11.75;;;10.25;;
49834;SDS011;35729;52.090;13.162;2023-08-20T03:01:00;11.85;;;10.25;;
49834;SDS011;35729;52.090;13.162;2023-08-20T03:03:28;12.52;;;10.95;;
49834;SDS011;35729;52.090;13.162;2023-08-20T03:05:57;12.07;;;10.82;;
49834;SDS011;35729;52.090;13.162;2023-08-20T03:08:25;11.85;;;10.65;;
49834;SDS011;35729;52.090;13.162;2023-08-20T03:10:54;11.57;;;10.48;;
49834;SDS011;35729;52.090;13.162;2023-08-20T03:13:25;12.90;;;10.70;;
49834;SDS011;35729;52.090;13.162;2023-08-20T03:15:53;11.55;;;10.43;;
49834;SDS011;35729;52.090;13.162;2023-08-20T03:21:01;11.82;;;10.27;;
49834;SDS011;35729;52.090;13.162;2023-08-20T03:23:29;11.57;;;10.40;;
49834;SDS011;35729;52.090;13.162;2023-08-20T03:26:04;12.25;;;10.80;;
49834;SDS011;35729;52.090;13.162;2023-08-20T03:28:35;12.60;;;10.70;;
49834;SDS011;35729;52.090;13.162;2023-08-20T03:31:04;11.90;;;10.68;;
49834;SDS011;35729;52.090;13.162;2023-08-20T03:33:32;12.27;;;10.50;;
49834;SDS011;35729;52.090;13.162;2023-08-20T03:36:01;11.73;;;10.52;;
49834;SDS011;35729;52.090;13.162;2023-08-20T03:38:29;12.20;;;10.93;;
49834;SDS011;35729;52.090;13.162;2023-08-20T03:40:58;12.48;;;11.27;;
49834;SDS011;35729;52.090;13.162;2023-08-20T03:43:27;12.15;;;10.95;;
49834;SDS011;35729;52.090;13.162;2023-08-20T03:45:58;12.50;;;11.30;;
49834;SDS011;35729;52.090;13.162;2023-08-20T03:48:26;12.63;;;11.32;;
49834;SDS011;35729;52.090;13.162;2023-08-20T03:50:55;14.95;;;10.88;;
49834;SDS011;35729;52.090;13.162;2023-08-20T03:53:24;15.88;;;11.95;;
49834;SDS011;35729;52.090;13.162;2023-08-20T03:55:52;13.05;;;11.70;;
49834;SDS011;35729;52.090;13.162;2023-08-20T03:58:21;14.30;;;11.00;;
49834;SDS011;35729;52.090;13.162;2023-08-20T04:00:49;18.42;;;11.90;;
49834;SDS011;35729;52.090;13.162;2023-08-20T04:03:20;14.00;;;11.65;;
49834;SDS011;35729;52.090;13.162;2023-08-20T04:05:49;12.52;;;11.25;;
49834;SDS011;35729;52.090;13.162;2023-08-20T04:08:17;14.57;;;11.73;;
49834;SDS011;35729;52.090;13.162;2023-08-20T04:10:46;15.32;;;11.52;;
49834;SDS011;35729;52.090;13.162;2023-08-20T04:13:14;13.88;;;11.20;;
49834;SDS011;35729;52.090;13.162;2023-08-20T04:15:43;14.65;;;12.10;;
49834;SDS011;35729;52.090;13.162;2023-08-20T04:18:12;15.65;;;12.55;;
49834;SDS011;35729;52.090;13.162;2023-08-20T04:20:43;15.63;;;12.25;;
49834;SDS011;35729;52.090;13.162;2023-08-20T04:23:11;12.80;;;11.60;;
49834;SDS011;35729;52.090;13.162;2023-08-20T04:25:40;13.73;;;12.30;;
49834;SDS011;35729;52.090;13.162;2023-08-20T04:28:10;16.63;;;13.18;;
49834;SDS011;35729;52.090;13.162;2023-08-20T04:30:38;14.80;;;12.52;;
49834;SDS011;35729;52.090;13.162;2023-08-20T04:33:07;15.43;;;12.82;;
49834;SDS011;35729;52.090;13.162;2023-08-20T04:35:36;13.55;;;12.15;;
49834;SDS011;35729;52.090;13.162;2023-08-20T04:38:07;14.18;;;12.32;;
49834;SDS011;35729;52.090;13.162;2023-08-20T04:40:36;14.50;;;11.63;;
49834;SDS011;35729;52.090;13.162;2023-08-20T04:43:04;14.65;;;13.13;;
49834;SDS011;35729;52.090;13.162;2023-08-20T04:45:32;20.30;;;13.98;;
49834;SDS011;35729;52.090;13.162;2023-08-20T04:48:01;13.73;;;12.30;;
49834;SDS011;35729;52.090;13.162;2023-08-20T04:50:29;15.43;;;13.63;;
49834;SDS011;35729;52.090;13.162;2023-08-20T04:52:58;15.98;;;14.05;;
49834;SDS011;35729;52.090;13.162;2023-08-20T04:55:29;17.25;;;14.43;;
49834;SDS011;35729;52.090;13.162;2023-08-20T04:57:58;16.23;;;14.52;;
49834;SDS011;35729;52.090;13.162;2023-08-20T05:00:26;15.45;;;13.65;;
49834;SDS011;35729;52.090;13.162;2023-08-20T05:02:55;15.82;;;14.07;;
49834;SDS011;35729;52.090;13.162;2023-08-20T05:05:23;19.45;;;15.13;;
49834;SDS011;35729;52.090;13.162;2023-08-20T05:07:52;16.30;;;14.27;;
49834;SDS011;35729;52.090;13.162;2023-08-20T05:10:21;17.42;;;14.65;;
49834;SDS011;35729;52.090;13.162;2023-08-20T05:12:52;18.05;;;13.85;;
49834;SDS011;35729;52.090;13.162;2023-08-20T05:15:20;16.02;;;14.32;;
49834;SDS011;35729;52.090;13.162;2023-08-20T05:17:48;15.05;;;13.55;;
49834;SDS011;35729;52.090;13.162;2023-08-20T05:20:17;16.15;;;14.45;;
49834;SDS011;35729;52.090;13.162;2023-08-20T05:22:45;14.85;;;13.30;;
49834;SDS011;35729;52.090;13.162;2023-08-20T05:25:14;14.93;;;13.05;;
49834;SDS011;35729;52.090;13.162;2023-08-20T05:27:42;16.13;;;13.48;;
49834;SDS011;35729;52.090;13.162;2023-08-20T05:30:14;14.35;;;12.88;;
49834;SDS011;35729;52.090;13.162;2023-08-20T05:32:42;15.15;;;11.93;;
49834;SDS011;35729;52.090;13.162;2023-08-20T05:35:11;14.65;;;13.15;;
49834;SDS011;35729;52.090;13.162;2023-08-20T05:37:40;16.88;;;12.85;;
49834;SDS011;35729;52.090;13.162;2023-08-20T05:40:09;15.23;;;12.73;;
49834;SDS011;35729;52.090;13.162;2023-08-20T05:42:38;14.15;;;12.75;;
49834;SDS011;35729;52.090;13.162;2023-08-20T05:45:07;12.85;;;11.23;;
49834;SDS011;35729;52.090;13.162;2023-08-20T05:47:38;12.82;;;11.57;;
49834;SDS011;35729;52.090;13.162;2023-08-20T05:50:07;12.98;;;11.65;;
49834;SDS011;35729;52.090;13.162;2023-08-20T05:52:35;12.95;;;11.65;;
49834;SDS011;35729;52.090;13.162;2023-08-20T05:55:04;12.38;;;10.73;;
49834;SDS011;35729;52.090;13.162;2023-08-20T05:57:33;14.30;;;10.57;;
49834;SDS011;35729;52.090;13.162;2023-08-20T06:00:02;12.82;;;11.50;;
49834;SDS011;35729;52.090;13.162;2023-08-20T06:02:32;14.65;;;11.10;;
49834;SDS011;35729;52.090;13.162;2023-08-20T06:05:03;12.15;;;10.95;;
49834;SDS011;35729;52.090;13.162;2023-08-20T06:07:33;10.90;;;9.90;;
49834;SDS011;35729;52.090;13.162;2023-08-20T06:10:01;12.60;;;10.27;;
49834;SDS011;35729;52.090;13.162;2023-08-20T06:12:30;14.07;;;12.10;;
49834;SDS011;35729;52.090;13.162;2023-08-20T06:14:59;11.88;;;10.05;;
49834;SDS011;35729;52.090;13.162;2023-08-20T06:17:27;12.65;;;10.10;;
49834;SDS011;35729;52.090;13.162;2023-08-20T06:19:56;12.10;;;10.82;;
49834;SDS011;35729;52.090;13.162;2023-08-20T06:22:27;11.80;;;10.55;;
49834;SDS011;35729;52.090;13.162;2023-08-20T06:24:56;13.35;;;11.25;;
49834;SDS011;35729;52.090;13.162;2023-08-20T06:27:25;11.82;;;10.57;;
49834;SDS011;35729;52.090;13.162;2023-08-20T06:29:54;12.98;;;10.07;;
49834;SDS011;35729;52.090;13.162;2023-08-20T06:32:22;12.63;;;9.52;;
49834;SDS011;35729;52.090;13.162;2023-08-20T06:34:51;10.68;;;9.48;;
49834;SDS011;35729;52.090;13.162;2023-08-20T06:37:19;16.67;;;9.02;;
49834;SDS011;35729;52.090;13.162;2023-08-20T06:39:50;10.32;;;9.23;;
49834;SDS011;35729;52.090;13.162;2023-08-20T06:42:19;11.27;;;9.15;;
49834;SDS011;35729;52.090;13.162;2023-08-20T06:44:47;10.43;;;8.38;;
49834;SDS011;35729;52.090;13.162;2023-08-20T06:47:15;10.27;;;8.75;;
49834;SDS011;35729;52.090;13.162;2023-08-20T06:49:44;10.10;;;8.57;;
49834;SDS011;35729;52.090;13.162;2023-08-20T06:52:12;8.70;;;7.60;;
49834;SDS011;35729;52.090;13.162;2023-08-20T06:54:41;7.97;;;6.82;;
49834;SDS011;35729;52.090;13.162;2023-08-20T06:57:12;11.82;;;6.97;;
49834;SDS011;35729;52.090;13.162;2023-08-20T06:59:41;7.18;;;6.43;;
49834;SDS011;35729;52.090;13.162;2023-08-20T07:02:09;6.38;;;5.68;;
49834;SDS011;35729;52.090;13.162;2023-08-20T07:04:37;5.72;;;5.13;;
49834;SDS011;35729;52.090;13.162;2023-08-20T07:07:06;5.75;;;4.90;;
49834;SDS011;35729;52.090;13.162;2023-08-20T07:09:34;7.63;;;4.90;;
49834;SDS011;35729;52.090;13.162;2023-08-20T07:12:03;6.38;;;5.00;;
49834;SDS011;35729;52.090;13.162;2023-08-20T07:14:35;5.30;;;4.80;;
49834;SDS011;35729;52.090;13.162;2023-08-20T07:17:03;5.30;;;4.68;;
49834;SDS011;35729;52.090;13.162;2023-08-20T07:19:32;7.63;;;4.68;;
49834;SDS011;35729;52.090;13.162;2023-08-20T07:22:00;5.40;;;4.18;;
49834;SDS011;35729;52.090;13.162;2023-08-20T07:24:29;5.63;;;4.80;;
49834;SDS011;35729;52.090;13.162;2023-08-20T07:27:00;5.38;;;4.32;;
49834;SDS011;35729;52.090;13.162;2023-08-20T07:29:38;5.47;;;4.47;;
49834;SDS011;35729;52.090;13.162;2023-08-20T07:32:06;6.75;;;4.53;;
49834;SDS011;35729;52.090;13.162;2023-08-20T07:34:35;6.47;;;4.50;;
49834;SDS011;35729;52.090;13.162;2023-08-20T07:37:03;4.75;;;4.00;;
49834;SDS011;35729;52.090;13.162;2023-08-20T07:39:32;4.68;;;3.28;;
49834;SDS011;35729;52.090;13.162;2023-08-20T07:42:00;6.18;;;3.58;;
49834;SDS011;35729;52.090;13.162;2023-08-20T07:44:29;4.75;;;3.92;;
49834;SDS011;35729;52.090;13.162;2023-08-20T07:47:00;5.35;;;3.08;;
49834;SDS011;35729;52.090;13.162;2023-08-20T07:49:28;8.70;;;4.00;;
49834;SDS011;35729;52.090;13.162;2023-08-20T07:51:57;4.25;;;3.30;;
49834;SDS011;35729;52.090;13.162;2023-08-20T07:54:25;5.47;;;3.38;;
49834;SDS011;35729;52.090;13.162;2023-08-20T07:56:54;5.30;;;3.05;;
49834;SDS011;35729;52.090;13.162;2023-08-20T07:59:22;3.42;;;3.10;;
49834;SDS011;35729;52.090;13.162;2023-08-20T08:01:51;5.00;;;3.30;;
49834;SDS011;35729;52.090;13.162;2023-08-20T08:04:22;4.22;;;3.78;;
49834;SDS011;35729;52.090;13.162;2023-08-20T08:06:50;4.63;;;3.10;;
49834;SDS011;35729;52.090;13.162;2023-08-20T08:09:19;5.10;;;3.33;;
49834;SDS011;35729;52.090;13.162;2023-08-20T08:11:49;4.05;;;2.83;;
49834;SDS011;35729;52.090;13.162;2023-08-20T08:14:17;3.95;;;3.45;;
49834;SDS011;35729;52.090;13.162;2023-08-20T08:16:46;4.03;;;3.22;;
49834;SDS011;35729;52.090;13.162;2023-08-20T08:19:15;6.13;;;3.33;;
49834;SDS011;35729;52.090;13.162;2023-08-20T08:21:47;5.35;;;4.40;;
49834;SDS011;35729;52.090;13.162;2023-08-20T08:24:22;4.82;;;3.50;;
49834;SDS011;35729;52.090;13.162;2023-08-20T08:26:57;5.20;;;3.08;;
49834;SDS011;35729;52.090;13.162;2023-08-20T08:29:26;5.03;;;2.80;;
49834;SDS011;35729;52.090;13.162;2023-08-20T08:31:54;3.20;;;2.90;;
49834;SDS011;35729;52.090;13.162;2023-08-20T08:34:23;3.70;;;3.15;;
49834;SDS011;35729;52.090;13.162;2023-08-20T08:36:54;5.65;;;3.00;;
49834;SDS011;35729;52.090;13.162;2023-08-20T08:39:22;3.35;;;3.05;;
49834;SDS011;35729;52.090;13.162;2023-08-20T08:41:51;4.05;;;3.13;;
49834;SDS011;35729;52.090;13.162;2023-08-20T08:44:27;3.17;;;2.72;;
49834;SDS011;35729;52.090;13.162;2023-08-20T08:46:56;5.03;;;2.85;;
49834;SDS011;35729;52.090;13.162;2023-08-20T08:49:25;3.25;;;2.95;;
49834;SDS011;35729;52.090;13.162;2023-08-20T08:51:57;4.28;;;3.70;;
49834;SDS011;35729;52.090;13.162;2023-08-20T08:54:26;4.43;;;3.30;;
49834;SDS011;35729;52.090;13.162;2023-08-20T08:56:55;6.13;;;3.40;;
49834;SDS011;35729;52.090;13.162;2023-08-20T08:59:24;8.90;;;6.15;;
49834;SDS011;35729;52.090;13.162;2023-08-20T09:01:52;4.95;;;3.33;;
49834;SDS011;35729;52.090;13.162;2023-08-20T09:04:21;4.32;;;3.25;;
49834;SDS011;35729;52.090;13.162;2023-08-20T09:06:51;4.38;;;3.15;;
49834;SDS011;35729;52.090;13.162;2023-08-20T09:09:23;6.07;;;3.40;;
49834;SDS011;35729;52.090;13.162;2023-08-20T09:11:51;3.92;;;3.53;;
49834;SDS011;35729;52.090;13.162;2023-08-20T09:14:20;6.05;;;3.90;;
49834;SDS011;35729;52.090;13.162;2023-08-20T09:16:57;4.88;;;3.40;;
49834;SDS011;35729;52.090;13.162;2023-08-20T09:19:28;4.53;;;3.83;;
49834;SDS011;35729;52.090;13.162;2023-08-20T09:21:58;3.40;;;3.10;;
49834;SDS011;35729;52.090;13.162;2023-08-20T09:24:31;4.95;;;3.65;;
49834;SDS011;35729;52.090;13.162;2023-08-20T09:27:03;4.97;;;3.00;;
49834;SDS011;35729;52.090;13.162;2023-08-20T09:29:32;2.95;;;2.65;;
49834;SDS011;35729;52.090;13.162;2023-08-20T09:32:02;4.00;;;3.13;;
49834;SDS011;35729;52.090;13.162;2023-08-20T09:34:37;4.80;;;3.33;;
49834;SDS011;35729;52.090;13.162;2023-08-20T09:37:09;3.80;;;3.38;;
49834;SDS011;35729;52.090;13.162;2023-08-20T09:39:41;4.30;;;3.72;;
49834;SDS011;35729;52.090;13.162;2023-08-20T09:42:10;4.88;;;3.08;;
49834;SDS011;35729;52.090;13.162;2023-08-20T09:44:39;4.85;;;3.55;;
49834;SDS011;35729;52.090;13.162;2023-08-20T09:47:11;3.42;;;2.85;;
49834;SDS011;35729;52.090;13.162;2023-08-20T09:49:40;5.20;;;3.58;;
49834;SDS011;35729;52.090;13.162;2023-08-20T09:52:12;4.47;;;3.17;;
49834;SDS011;35729;52.090;13.162;2023-08-20T09:54:51;4.07;;;3.30;;
49834;SDS011;35729;52.090;13.162;2023-08-20T09:57:31;3.83;;;3.53;;
49834;SDS011;35729;52.090;13.162;2023-08-20T10:00:01;3.38;;;3.08;;
49834;SDS011;35729;52.090;13.162;2023-08-20T10:02:31;4.88;;;3.53;;
49834;SDS011;35729;52.090;13.162;2023-08-20T10:05:02;3.38;;;3.08;;
49834;SDS011;35729;52.090;13.162;2023-08-20T10:07:31;2.90;;;2.60;;
49834;SDS011;35729;52.090;13.162;2023-08-20T10:10:04;6.75;;;4.28;;
49834;SDS011;35729;52.090;13.162;2023-08-20T10:12:35;4.35;;;3.10;;
49834;SDS011;35729;52.090;13.162;2023-08-20T10:15:07;3.97;;;3.13;;
49834;SDS011;35729;52.090;13.162;2023-08-20T10:17:37;3.67;;;3.20;;
49834;SDS011;35729;52.090;13.162;2023-08-20T10:20:07;3.58;;;3.17;;
49834;SDS011;35729;52.090;13.162;2023-08-20T10:22:38;3.95;;;3.20;;
49834;SDS011;35729;52.090;13.162;2023-08-20T10:25:10;4.10;;;3.22;;
49834;SDS011;35729;52.090;13.162;2023-08-20T10:27:40;3.97;;;3.20;;
49834;SDS011;35729;52.090;13.162;2023-08-20T10:30:10;3.50;;;2.95;;
49834;SDS011;35729;52.090;13.162;2023-08-20T10:32:47;4.45;;;3.22;;
49834;SDS011;35729;52.090;13.162;2023-08-20T10:35:17;3.10;;;2.80;;
49834;SDS011;35729;52.090;13.162;2023-08-20T10:43:29;4.07;;;3.40;;
49834;SDS011;35729;52.090;13.162;2023-08-20T10:48:51;4.78;;;3.40;;
49834;SDS011;35729;52.090;13.162;2023-08-20T10:51:24;5.40;;;3.92;;
49834;SDS011;35729;52.090;13.162;2023-08-20T10:54:04;5.28;;;4.20;;
49834;SDS011;35729;52.090;13.162;2023-08-20T10:56:40;4.10;;;3.35;;
49834;SDS011;35729;52.090;13.162;2023-08-20T10:59:13;3.75;;;3.45;;
49834;SDS011;35729;52.090;13.162;2023-08-20T11:01:43;3.92;;;3.60;;
49834;SDS011;35729;52.090;13.162;2023-08-20T11:04:12;4.55;;;3.47;;
49834;SDS011;35729;52.090;13.162;2023-08-20T11:06:41;4.22;;;3.38;;
49834;SDS011;35729;52.090;13.162;2023-08-20T11:09:09;4.47;;;4.07;;
49834;SDS011;35729;52.090;13.162;2023-08-20T11:11:41;4.32;;;3.40;;
49834;SDS011;35729;52.090;13.162;2023-08-20T11:14:11;3.67;;;3.38;;
49834;SDS011;35729;52.090;13.162;2023-08-20T11:16:42;6.25;;;4.18;;
49834;SDS011;35729;52.090;13.162;2023-08-20T11:19:11;4.50;;;3.78;;
49834;SDS011;35729;52.090;13.162;2023-08-20T11:21:40;4.25;;;3.70;;
49834;SDS011;35729;52.090;13.162;2023-08-20T11:24:11;6.50;;;4.35;;
49834;SDS011;35729;52.090;13.162;2023-08-20T11:26:43;4.72;;;3.70;;
49834;SDS011;35729;52.090;13.162;2023-08-20T11:29:12;4.30;;;3.88;;
49834;SDS011;35729;52.090;13.162;2023-08-20T11:34:13;3.42;;;3.00;;
49834;SDS011;35729;52.090;13.162;2023-08-20T11:36:41;5.43;;;4.25;;
49834;SDS011;35729;52.090;13.162;2023-08-20T11:39:10;3.90;;;3.28;;
49834;SDS011;35729;52.090;13.162;2023-08-20T11:41:39;5.97;;;3.53;;
49834;SDS011;35729;52.090;13.162;2023-08-20T11:44:18;3.70;;;3.35;;
49834;SDS011;35729;52.090;13.162;2023-08-20T11:46:47;4.78;;;3.35;;
49834;SDS011;35729;52.090;13.162;2023-08-20T11:49:15;4.50;;;3.75;;
49834;SDS011;35729;52.090;13.162;2023-08-20T11:51:46;4.18;;;3.33;;
49834;SDS011;35729;52.090;13.162;2023-08-20T11:54:15;6.15;;;3.30;;
49834;SDS011;35729;52.090;13.162;2023-08-20T11:56:48;5.22;;;3.13;;
49834;SDS011;35729;52.090;13.162;2023-08-20T11:59:18;3.47;;;3.03;;
49834;SDS011;35729;52.090;13.162;2023-08-20T12:01:51;4.38;;;3.10;;
49834;SDS011;35729;52.090;13.162;2023-08-20T12:04:23;4.32;;;3.25;;
49834;SDS011;35729;52.090;13.162;2023-08-20T12:07:01;6.30;;;3.00;;
49834;SDS011;35729;52.090;13.162;2023-08-20T12:09:31;3.45;;;3.13;;
49834;SDS011;35729;52.090;13.162;2023-08-20T12:12:04;3.28;;;2.55;;
49834;SDS011;35729;52.090;13.162;2023-08-20T12:14:34;2.78;;;2.58;;
49834;SDS011;35729;52.090;13.162;2023-08-20T12:17:05;2.40;;;2.20;;
49834;SDS011;35729;52.090;13.162;2023-08-20T12:19:33;3.38;;;2.08;;
49834;SDS011;35729;52.090;13.162;2023-08-20T12:22:02;3.35;;;2.10;;
49834;SDS011;35729;52.090;13.162;2023-08-20T12:24:30;3.30;;;2.10;;
49834;SDS011;35729;52.090;13.162;2023-08-20T12:26:59;2.67;;;2.05;;
49834;SDS011;35729;52.090;13.162;2023-08-20T12:29:30;2.58;;;2.22;;
49834;SDS011;35729;52.090;13.162;2023-08-20T12:31:58;2.70;;;2.45;;
49834;SDS011;35729;52.090;13.162;2023-08-20T12:34:29;2.88;;;1.90;;
49834;SDS011;35729;52.090;13.162;2023-08-20T12:36:58;2.75;;;2.20;;
49834;SDS011;35729;52.090;13.162;2023-08-20T12:39:27;3.03;;;2.10;;
49834;SDS011;35729;52.090;13.162;2023-08-20T12:41:55;2.45;;;2.10;;
49834;SDS011;35729;52.090;13.162;2023-08-20T12:44:26;2.95;;;2.40;;
49834;SDS011;35729;52.090;13.162;2023-08-20T12:46:55;2.33;;;2.13;;
49834;SDS011;35729;52.090;13.162;2023-08-20T12:49:23;2.17;;;1.90;;
49834;SDS011;35729;52.090;13.162;2023-08-20T12:51:52;2.15;;;1.88;;
49834;SDS011;35729;52.090;13.162;2023-08-20T12:54:20;2.20;;;2.00;;
49834;SDS011;35729;52.090;13.162;2023-08-20T12:56:49;2.80;;;1.90;;
49834;SDS011;35729;52.090;13.162;2023-08-20T12:59:17;4.38;;;2.28;;
49834;SDS011;35729;52.090;13.162;2023-08-20T13:01:48;2.05;;;1.80;;
49834;SDS011;35729;52.090;13.162;2023-08-20T13:04:17;2.75;;;2.00;;
49834;SDS011;35729;52.090;13.162;2023-08-20T13:06:46;2.50;;;2.00;;
49834;SDS011;35729;52.090;13.162;2023-08-20T13:09:15;2.67;;;1.90;;
49834;SDS011;35729;52.090;13.162;2023-08-20T13:11:44;3.75;;;1.98;;
49834;SDS011;35729;52.090;13.162;2023-08-20T13:14:15;2.40;;;2.15;;
49834;SDS011;35729;52.090;13.162;2023-08-20T13:16:44;2.10;;;1.90;;
49834;SDS011;35729;52.090;13.162;2023-08-20T13:19:16;4.05;;;2.10;;
49834;SDS011;35729;52.090;13.162;2023-08-20T13:21:44;2.75;;;1.90;;
49834;SDS011;35729;52.090;13.162;2023-08-20T13:24:13;2.42;;;1.70;;
49834;SDS011;35729;52.090;13.162;2023-08-20T13:26:41;4.65;;;2.00;;
49834;SDS011;35729;52.090;13.162;2023-08-20T13:29:10;3.67;;;2.10;;
49834;SDS011;35729;52.090;13.162;2023-08-20T13:31:39;2.53;;;2.30;;
49834;SDS011;35729;52.090;13.162;2023-08-20T13:34:07;2.45;;;1.98;;
49834;SDS011;35729;52.090;13.162;2023-08-20T13:36:38;2.10;;;1.88;;
49834;SDS011;35729;52.090;13.162;2023-08-20T13:39:07;4.05;;;1.83;;
49834;SDS011;35729;52.090;13.162;2023-08-20T13:41:38;2.20;;;2.00;;
49834;SDS011;35729;52.090;13.162;2023-08-20T13:44:07;2.10;;;1.90;;
49834;SDS011;35729;52.090;13.162;2023-08-20T13:46:35;3.05;;;1.77;;
49834;SDS011;35729;52.090;13.162;2023-08-20T13:49:04;3.00;;;1.92;;
49834;SDS011;35729;52.090;13.162;2023-08-20T13:51:32;3.58;;;1.88;;
49834;SDS011;35729;52.090;13.162;2023-08-20T13:54:04;2.30;;;1.80;;
49834;SDS011;35729;52.090;13.162;2023-08-20T13:56:32;1.95;;;1.75;;
49834;SDS011;35729;52.090;13.162;2023-08-20T13:59:01;2.58;;;1.65;;
49834;SDS011;35729;52.090;13.162;2023-08-20T14:01:29;2.17;;;1.45;;
49834;SDS011;35729;52.090;13.162;2023-08-20T14:03:58;2.17;;;1.75;;
49834;SDS011;35729;52.090;13.162;2023-08-20T14:06:26;4.22;;;1.70;;
49834;SDS011;35729;52.090;13.162;2023-08-20T14:08:55;2.40;;;1.60;;
49834;SDS011;35729;52.090;13.162;2023-08-20T14:11:26;3.42;;;2.45;;
49834;SDS011;35729;52.090;13.162;2023-08-20T14:13:55;2.38;;;1.80;;
49834;SDS011;35729;52.090;13.162;2023-08-20T14:16:23;2.85;;;1.92;;
49834;SDS011;35729;52.090;13.162;2023-08-20T14:18:52;3.97;;;1.55;;
49834;SDS011;35729;52.090;13.162;2023-08-20T14:21:20;2.22;;;1.60;;
49834;SDS011;35729;52.090;13.162;2023-08-20T14:24:02;2.22;;;1.70;;
49834;SDS011;35729;52.090;13.162;2023-08-20T14:26:33;2.38;;;1.83;;
49834;SDS011;35729;52.090;13.162;2023-08-20T14:29:01;3.10;;;1.55;;
49834;SDS011;35729;52.090;13.162;2023-08-20T14:31:30;2.25;;;1.67;;
49834;SDS011;35729;52.090;13.162;2023-08-20T14:33:59;3.42;;;1.73;;
49834;SDS011;35729;52.090;13.162;2023-08-20T14:36:27;3.08;;;2.00;;
49834;SDS011;35729;52.090;13.162;2023-08-20T14:38:56;2.35;;;1.42;;
49834;SDS011;35729;52.090;13.162;2023-08-20T14:41:24;2.42;;;1.63;;
49834;SDS011;35729;52.090;13.162;2023-08-20T14:43:55;2.10;;;1.60;;
49834;SDS011;35729;52.090;13.162;2023-08-20T14:46:24;3.85;;;2.13;;
49834;SDS011;35729;52.090;13.162;2023-08-20T14:48:52;2.33;;;1.50;;
49834;SDS011;35729;52.090;13.162;2023-08-20T14:51:21;2.00;;;1.83;;
49834;SDS011;35729;52.090;13.162;2023-08-20T14:53:49;4.70;;;1.80;;
49834;SDS011;35729;52.090;13.162;2023-08-20T14:56:18;4.88;;;1.60;;
49834;SDS011;35729;52.090;13.162;2023-08-20T14:58:46;1.88;;;1.52;;
49834;SDS011;35729;52.090;13.162;2023-08-20T15:01:17;3.17;;;1.40;;